sensor_id;sensor_type;location;lat;lon;timestamp;P1;durP1;ratioP1;P2;durP2;ratioP2
20635;SDS011;10477;43.198;27.916;2022-08-04T00:00:49;51.87;;;48.17;;
20635;SDS011;10477;43.198;27.916;2022-08-04T00:03:18;50.53;;;46.93;;
20635;SDS011;10477;43.198;27.916;2022-08-04T00:05:53;54.03;;;50.03;;
20635;SDS011;10477;43.198;27.916;2022-08-04T00:11:19;44.43;;;41.23;;
20635;SDS011;10477;43.198;27.916;2022-08-04T00:13:45;42.23;;;39.17;;
20635;SDS011;10477;43.198;27.916;2022-08-04T00:16:13;41.27;;;38.27;;
20635;SDS011;10477;43.198;27.916;2022-08-04T00:18:46;39.27;;;36.37;;
20635;SDS011;10477;43.198;27.916;2022-08-04T00:21:18;41.10;;;37.90;;
20635;SDS011;10477;43.198;27.916;2022-08-04T00:23:49;41.77;;;38.73;;
20635;SDS011;10477;43.198;27.916;2022-08-04T00:26:19;40.20;;;37.17;;
20635;SDS011;10477;43.198;27.916;2022-08-04T00:28:47;41.23;;;38.33;;
20635;SDS011;10477;43.198;27.916;2022-08-04T00:31:16;40.50;;;37.50;;
20635;SDS011;10477;43.198;27.916;2022-08-04T00:33:44;41.70;;;38.60;;
20635;SDS011;10477;43.198;27.916;2022-08-04T00:36:14;42.60;;;39.50;;
20635;SDS011;10477;43.198;27.916;2022-08-04T00:38:43;46.23;;;42.67;;
20635;SDS011;10477;43.198;27.916;2022-08-04T00:49:42;44.47;;;41.27;;
20635;SDS011;10477;43.198;27.916;2022-08-04T01:00:43;45.80;;;42.50;;
20635;SDS011;10477;43.198;27.916;2022-08-04T01:16:47;41.17;;;38.17;;
20635;SDS011;10477;43.198;27.916;2022-08-04T01:19:28;45.17;;;41.87;;
20635;SDS011;10477;43.198;27.916;2022-08-04T01:27:57;46.63;;;43.40;;
20635;SDS011;10477;43.198;27.916;2022-08-04T01:30:31;45.67;;;42.47;;
20635;SDS011;10477;43.198;27.916;2022-08-04T01:33:02;50.23;;;46.73;;
20635;SDS011;10477;43.198;27.916;2022-08-04T01:40:58;51.87;;;48.27;;
20635;SDS011;10477;43.198;27.916;2022-08-04T01:43:27;57.17;;;53.27;;
20635;SDS011;10477;43.198;27.916;2022-08-04T01:45:58;61.53;;;57.30;;
20635;SDS011;10477;43.198;27.916;2022-08-04T01:48:28;57.83;;;53.73;;
20635;SDS011;10477;43.198;27.916;2022-08-04T01:51:04;57.93;;;53.93;;
20635;SDS011;10477;43.198;27.916;2022-08-04T01:53:41;62.10;;;57.70;;
20635;SDS011;10477;43.198;27.916;2022-08-04T01:56:07;59.60;;;55.43;;
20635;SDS011;10477;43.198;27.916;2022-08-04T01:58:37;62.37;;;57.87;;
20635;SDS011;10477;43.198;27.916;2022-08-04T02:01:10;57.37;;;53.40;;
20635;SDS011;10477;43.198;27.916;2022-08-04T02:03:40;59.40;;;55.30;;
20635;SDS011;10477;43.198;27.916;2022-08-04T02:09:05;63.07;;;58.47;;
20635;SDS011;10477;43.198;27.916;2022-08-04T02:11:39;57.10;;;53.10;;
20635;SDS011;10477;43.198;27.916;2022-08-04T02:14:18;58.37;;;54.37;;
20635;SDS011;10477;43.198;27.916;2022-08-04T02:16:48;58.00;;;54.00;;
20635;SDS011;10477;43.198;27.916;2022-08-04T02:19:35;57.37;;;53.27;;
20635;SDS011;10477;43.198;27.916;2022-08-04T02:22:17;63.00;;;58.80;;
20635;SDS011;10477;43.198;27.916;2022-08-04T02:24:48;58.60;;;54.60;;
20635;SDS011;10477;43.198;27.916;2022-08-04T02:27:16;57.83;;;53.73;;
20635;SDS011;10477;43.198;27.916;2022-08-04T02:29:53;58.07;;;53.47;;
20635;SDS011;10477;43.198;27.916;2022-08-04T02:32:20;63.33;;;59.03;;
20635;SDS011;10477;43.198;27.916;2022-08-04T02:34:53;56.97;;;52.97;;
20635;SDS011;10477;43.198;27.916;2022-08-04T02:37:35;59.33;;;55.33;;
20635;SDS011;10477;43.198;27.916;2022-08-04T02:40:05;60.20;;;56.10;;
20635;SDS011;10477;43.198;27.916;2022-08-04T02:42:34;60.03;;;55.83;;
20635;SDS011;10477;43.198;27.916;2022-08-04T02:45:03;63.93;;;58.97;;
20635;SDS011;10477;43.198;27.916;2022-08-04T02:47:33;57.57;;;53.63;;
20635;SDS011;10477;43.198;27.916;2022-08-04T02:50:02;61.80;;;57.50;;
20635;SDS011;10477;43.198;27.916;2022-08-04T02:52:30;64.33;;;59.93;;
20635;SDS011;10477;43.198;27.916;2022-08-04T02:55:00;65.13;;;60.60;;
20635;SDS011;10477;43.198;27.916;2022-08-04T02:57:29;65.20;;;60.60;;
20635;SDS011;10477;43.198;27.916;2022-08-04T03:00:08;65.57;;;61.17;;
20635;SDS011;10477;43.198;27.916;2022-08-04T03:05:54;61.23;;;57.03;;
20635;SDS011;10477;43.198;27.916;2022-08-04T03:30:40;57.73;;;53.27;;
20635;SDS011;10477;43.198;27.916;2022-08-04T03:41:30;38.57;;;35.57;;
20635;SDS011;10477;43.198;27.916;2022-08-04T03:44:19;35.55;;;32.70;;
20635;SDS011;10477;43.198;27.916;2022-08-04T03:57:51;28.57;;;26.17;;
20635;SDS011;10477;43.198;27.916;2022-08-04T04:11:44;30.35;;;27.98;;
20635;SDS011;10477;43.198;27.916;2022-08-04T04:19:53;27.77;;;25.45;;
20635;SDS011;10477;43.198;27.916;2022-08-04T04:25:04;26.55;;;24.45;;
20635;SDS011;10477;43.198;27.916;2022-08-04T04:27:42;29.82;;;27.58;;
20635;SDS011;10477;43.198;27.916;2022-08-04T04:33:22;29.05;;;26.85;;
20635;SDS011;10477;43.198;27.916;2022-08-04T04:36:18;32.95;;;30.37;;
20635;SDS011;10477;43.198;27.916;2022-08-04T04:39:12;31.77;;;29.37;;
20635;SDS011;10477;43.198;27.916;2022-08-04T04:44:13;37.65;;;34.50;;
20635;SDS011;10477;43.198;27.916;2022-08-04T04:49:34;37.90;;;35.10;;
20635;SDS011;10477;43.198;27.916;2022-08-04T04:55:18;31.55;;;29.10;;
20635;SDS011;10477;43.198;27.916;2022-08-04T04:57:50;37.20;;;34.40;;
20635;SDS011;10477;43.198;27.916;2022-08-04T05:00:20;31.62;;;29.15;;
20635;SDS011;10477;43.198;27.916;2022-08-04T05:02:58;36.00;;;33.30;;
20635;SDS011;10477;43.198;27.916;2022-08-04T05:14:17;33.92;;;31.42;;
20635;SDS011;10477;43.198;27.916;2022-08-04T05:16:43;32.95;;;30.52;;
20635;SDS011;10477;43.198;27.916;2022-08-04T05:24:27;33.40;;;30.90;;
20635;SDS011;10477;43.198;27.916;2022-08-04T05:26:59;36.90;;;33.48;;
20635;SDS011;10477;43.198;27.916;2022-08-04T05:29:35;35.85;;;33.00;;
20635;SDS011;10477;43.198;27.916;2022-08-04T05:32:06;31.35;;;28.50;;
20635;SDS011;10477;43.198;27.916;2022-08-04T05:34:40;32.42;;;29.72;;
20635;SDS011;10477;43.198;27.916;2022-08-04T05:37:14;33.35;;;30.55;;
20635;SDS011;10477;43.198;27.916;2022-08-04T05:39:48;30.72;;;28.12;;
20635;SDS011;10477;43.198;27.916;2022-08-04T05:42:29;34.92;;;31.93;;
20635;SDS011;10477;43.198;27.916;2022-08-04T05:45:05;33.08;;;30.37;;
20635;SDS011;10477;43.198;27.916;2022-08-04T05:47:35;29.40;;;27.05;;
20635;SDS011;10477;43.198;27.916;2022-08-04T05:50:04;30.65;;;28.15;;
20635;SDS011;10477;43.198;27.916;2022-08-04T05:52:34;31.73;;;29.00;;
20635;SDS011;10477;43.198;27.916;2022-08-04T05:55:04;35.80;;;33.13;;
20635;SDS011;10477;43.198;27.916;2022-08-04T05:57:33;31.33;;;28.83;;
20635;SDS011;10477;43.198;27.916;2022-08-04T06:00:03;37.23;;;34.43;;
20635;SDS011;10477;43.198;27.916;2022-08-04T06:02:32;32.08;;;29.67;;
20635;SDS011;10477;43.198;27.916;2022-08-04T06:05:02;30.68;;;28.30;;
20635;SDS011;10477;43.198;27.916;2022-08-04T06:07:32;30.80;;;28.27;;
20635;SDS011;10477;43.198;27.916;2022-08-04T06:10:00;32.78;;;30.17;;
20635;SDS011;10477;43.198;27.916;2022-08-04T06:15:08;34.83;;;32.28;;
20635;SDS011;10477;43.198;27.916;2022-08-04T06:17:45;32.40;;;30.00;;
20635;SDS011;10477;43.198;27.916;2022-08-04T06:20:13;32.80;;;30.30;;
20635;SDS011;10477;43.198;27.916;2022-08-04T06:22:43;32.70;;;30.20;;
20635;SDS011;10477;43.198;27.916;2022-08-04T06:25:15;32.50;;;29.45;;
20635;SDS011;10477;43.198;27.916;2022-08-04T06:27:45;32.28;;;29.87;;
20635;SDS011;10477;43.198;27.916;2022-08-04T06:30:15;33.15;;;30.55;;
20635;SDS011;10477;43.198;27.916;2022-08-04T06:32:44;33.58;;;30.97;;
20635;SDS011;10477;43.198;27.916;2022-08-04T06:35:16;33.67;;;31.17;;
20635;SDS011;10477;43.198;27.916;2022-08-04T06:37:45;32.60;;;29.95;;
20635;SDS011;10477;43.198;27.916;2022-08-04T06:40:15;31.65;;;29.18;;
20635;SDS011;10477;43.198;27.916;2022-08-04T06:42:45;31.57;;;29.10;;
20635;SDS011;10477;43.198;27.916;2022-08-04T06:45:14;30.17;;;27.93;;
20635;SDS011;10477;43.198;27.916;2022-08-04T06:47:43;29.10;;;26.90;;
20635;SDS011;10477;43.198;27.916;2022-08-04T06:50:12;29.75;;;27.50;;
20635;SDS011;10477;43.198;27.916;2022-08-04T06:52:40;31.10;;;28.70;;
20635;SDS011;10477;43.198;27.916;2022-08-04T06:55:11;31.30;;;29.00;;
20635;SDS011;10477;43.198;27.916;2022-08-04T06:57:40;32.03;;;29.23;;
20635;SDS011;10477;43.198;27.916;2022-08-04T07:00:10;32.73;;;30.32;;
20635;SDS011;10477;43.198;27.916;2022-08-04T07:05:13;28.47;;;26.17;;
20635;SDS011;10477;43.198;27.916;2022-08-04T07:07:43;27.45;;;25.35;;
20635;SDS011;10477;43.198;27.916;2022-08-04T07:10:12;25.15;;;23.22;;
20635;SDS011;10477;43.198;27.916;2022-08-04T07:12:41;27.45;;;25.35;;
20635;SDS011;10477;43.198;27.916;2022-08-04T07:15:11;24.90;;;22.90;;
20635;SDS011;10477;43.198;27.916;2022-08-04T07:17:41;27.20;;;25.10;;
20635;SDS011;10477;43.198;27.916;2022-08-04T07:20:11;25.90;;;23.90;;
20635;SDS011;10477;43.198;27.916;2022-08-04T07:22:39;26.68;;;24.50;;
20635;SDS011;10477;43.198;27.916;2022-08-04T07:25:09;26.87;;;24.77;;
20635;SDS011;10477;43.198;27.916;2022-08-04T07:27:37;25.72;;;23.85;;
20635;SDS011;10477;43.198;27.916;2022-08-04T07:30:06;25.75;;;23.87;;
20635;SDS011;10477;43.198;27.916;2022-08-04T07:32:34;24.15;;;22.37;;
20635;SDS011;10477;43.198;27.916;2022-08-04T07:35:04;25.25;;;23.38;;
20635;SDS011;10477;43.198;27.916;2022-08-04T07:37:33;24.45;;;22.65;;
20635;SDS011;10477;43.198;27.916;2022-08-04T07:40:01;26.05;;;24.15;;
20635;SDS011;10477;43.198;27.916;2022-08-04T07:42:29;26.95;;;24.50;;
20635;SDS011;10477;43.198;27.916;2022-08-04T07:44:59;26.90;;;24.90;;
20635;SDS011;10477;43.198;27.916;2022-08-04T07:47:26;25.80;;;23.90;;
20635;SDS011;10477;43.198;27.916;2022-08-04T07:49:54;29.15;;;26.73;;
20635;SDS011;10477;43.198;27.916;2022-08-04T07:52:23;24.92;;;23.02;;
20635;SDS011;10477;43.198;27.916;2022-08-04T07:54:52;25.08;;;22.65;;
20635;SDS011;10477;43.198;27.916;2022-08-04T07:57:20;24.12;;;22.05;;
20635;SDS011;10477;43.198;27.916;2022-08-04T07:59:48;24.43;;;22.62;;
20635;SDS011;10477;43.198;27.916;2022-08-04T08:02:17;26.45;;;24.45;;
20635;SDS011;10477;43.198;27.916;2022-08-04T08:04:48;25.80;;;23.83;;
20635;SDS011;10477;43.198;27.916;2022-08-04T08:07:17;22.75;;;20.95;;
20635;SDS011;10477;43.198;27.916;2022-08-04T08:09:45;24.63;;;22.58;;
20635;SDS011;10477;43.198;27.916;2022-08-04T08:12:13;23.22;;;21.33;;
20635;SDS011;10477;43.198;27.916;2022-08-04T08:14:43;23.32;;;21.62;;
20635;SDS011;10477;43.198;27.916;2022-08-04T08:17:17;23.20;;;21.50;;
20635;SDS011;10477;43.198;27.916;2022-08-04T08:19:44;24.25;;;22.45;;
20635;SDS011;10477;43.198;27.916;2022-08-04T08:22:11;23.77;;;21.87;;
20635;SDS011;10477;43.198;27.916;2022-08-04T08:24:40;26.23;;;24.25;;
20635;SDS011;10477;43.198;27.916;2022-08-04T08:27:07;22.70;;;20.92;;
20635;SDS011;10477;43.198;27.916;2022-08-04T08:29:36;22.77;;;21.07;;
20635;SDS011;10477;43.198;27.916;2022-08-04T08:32:05;23.02;;;21.33;;
20635;SDS011;10477;43.198;27.916;2022-08-04T08:34:37;24.23;;;22.42;;
20635;SDS011;10477;43.198;27.916;2022-08-04T08:37:13;26.35;;;24.45;;
20635;SDS011;10477;43.198;27.916;2022-08-04T08:39:55;22.37;;;20.77;;
20635;SDS011;10477;43.198;27.916;2022-08-04T08:51:22;23.95;;;22.15;;
20635;SDS011;10477;43.198;27.916;2022-08-04T09:00:16;22.90;;;21.20;;
20635;SDS011;10477;43.198;27.916;2022-08-04T09:10:46;22.70;;;21.00;;
20635;SDS011;10477;43.198;27.916;2022-08-04T09:13:26;23.05;;;21.07;;
20635;SDS011;10477;43.198;27.916;2022-08-04T09:21:50;42.33;;;27.42;;
20635;SDS011;10477;43.198;27.916;2022-08-04T09:24:21;22.65;;;20.75;;
20635;SDS011;10477;43.198;27.916;2022-08-04T09:29:36;22.15;;;20.35;;
20635;SDS011;10477;43.198;27.916;2022-08-04T09:43:35;21.75;;;20.05;;
20635;SDS011;10477;43.198;27.916;2022-08-04T09:46:24;22.20;;;20.40;;
20635;SDS011;10477;43.198;27.916;2022-08-04T09:54:18;22.65;;;20.85;;
20635;SDS011;10477;43.198;27.916;2022-08-04T09:59:37;22.22;;;20.43;;
20635;SDS011;10477;43.198;27.916;2022-08-04T10:02:20;23.40;;;21.60;;
20635;SDS011;10477;43.198;27.916;2022-08-04T10:04:53;22.75;;;20.85;;
20635;SDS011;10477;43.198;27.916;2022-08-04T10:10:22;23.15;;;21.35;;
20635;SDS011;10477;43.198;27.916;2022-08-04T10:15:57;22.85;;;21.05;;
20635;SDS011;10477;43.198;27.916;2022-08-04T10:21:44;25.60;;;23.50;;
20635;SDS011;10477;43.198;27.916;2022-08-04T10:30:01;24.65;;;22.10;;
20635;SDS011;10477;43.198;27.916;2022-08-04T10:32:34;23.07;;;21.37;;
20635;SDS011;10477;43.198;27.916;2022-08-04T10:35:08;23.35;;;21.65;;
20635;SDS011;10477;43.198;27.916;2022-08-04T10:40:19;23.95;;;22.15;;
20635;SDS011;10477;43.198;27.916;2022-08-04T10:43:04;25.57;;;23.57;;
20635;SDS011;10477;43.198;27.916;2022-08-04T10:45:41;24.47;;;22.48;;
20635;SDS011;10477;43.198;27.916;2022-08-04T10:48:11;25.43;;;23.32;;
20635;SDS011;10477;43.198;27.916;2022-08-04T10:53:55;25.80;;;23.70;;
20635;SDS011;10477;43.198;27.916;2022-08-04T10:56:26;24.70;;;22.80;;
20635;SDS011;10477;43.198;27.916;2022-08-04T10:58:59;26.82;;;24.72;;
20635;SDS011;10477;43.198;27.916;2022-08-04T11:01:34;24.23;;;22.35;;
20635;SDS011;10477;43.198;27.916;2022-08-04T11:04:05;25.45;;;23.55;;
20635;SDS011;10477;43.198;27.916;2022-08-04T11:06:34;27.60;;;25.43;;
20635;SDS011;10477;43.198;27.916;2022-08-04T11:09:03;35.75;;;30.20;;
20635;SDS011;10477;43.198;27.916;2022-08-04T11:11:39;29.00;;;26.90;;
20635;SDS011;10477;43.198;27.916;2022-08-04T11:14:15;29.02;;;26.80;;
20635;SDS011;10477;43.198;27.916;2022-08-04T11:16:49;28.45;;;26.05;;
20635;SDS011;10477;43.198;27.916;2022-08-04T11:27:36;26.17;;;24.27;;
20635;SDS011;10477;43.198;27.916;2022-08-04T11:30:12;25.97;;;23.85;;
20635;SDS011;10477;43.198;27.916;2022-08-04T11:32:47;25.05;;;23.15;;
20635;SDS011;10477;43.198;27.916;2022-08-04T11:38:30;27.90;;;25.70;;
20635;SDS011;10477;43.198;27.916;2022-08-04T11:41:25;31.40;;;29.00;;
20635;SDS011;10477;43.198;27.916;2022-08-04T11:43:57;26.62;;;24.30;;
20635;SDS011;10477;43.198;27.916;2022-08-04T11:46:29;25.00;;;23.00;;
20635;SDS011;10477;43.198;27.916;2022-08-04T11:49:09;26.50;;;24.40;;
20635;SDS011;10477;43.198;27.916;2022-08-04T11:51:43;27.05;;;24.90;;
20635;SDS011;10477;43.198;27.916;2022-08-04T11:54:13;26.25;;;24.07;;
20635;SDS011;10477;43.198;27.916;2022-08-04T11:56:43;26.07;;;23.98;;
20635;SDS011;10477;43.198;27.916;2022-08-04T11:59:11;26.27;;;24.18;;
20635;SDS011;10477;43.198;27.916;2022-08-04T12:01:44;26.65;;;24.35;;
20635;SDS011;10477;43.198;27.916;2022-08-04T12:07:16;25.90;;;23.80;;
20635;SDS011;10477;43.198;27.916;2022-08-04T12:12:58;26.82;;;24.63;;
20635;SDS011;10477;43.198;27.916;2022-08-04T12:16:28;25.50;;;23.40;;
20635;SDS011;10477;43.198;27.916;2022-08-04T12:18:26;25.10;;;23.10;;
20635;SDS011;10477;43.198;27.916;2022-08-04T12:21:04;25.60;;;23.50;;
20635;SDS011;10477;43.198;27.916;2022-08-04T12:23:35;25.72;;;23.62;;
20635;SDS011;10477;43.198;27.916;2022-08-04T12:26:10;26.12;;;24.02;;
20635;SDS011;10477;43.198;27.916;2022-08-04T12:28:39;25.30;;;23.20;;
20635;SDS011;10477;43.198;27.916;2022-08-04T12:31:56;26.33;;;24.23;;
20635;SDS011;10477;43.198;27.916;2022-08-04T12:33:58;28.00;;;25.48;;
20635;SDS011;10477;43.198;27.916;2022-08-04T12:36:33;29.20;;;26.17;;
20635;SDS011;10477;43.198;27.916;2022-08-04T12:39:11;25.88;;;23.77;;
20635;SDS011;10477;43.198;27.916;2022-08-04T12:44:22;26.70;;;24.60;;
20635;SDS011;10477;43.198;27.916;2022-08-04T12:46:53;28.10;;;25.82;;
20635;SDS011;10477;43.198;27.916;2022-08-04T12:49:22;31.02;;;28.62;;
20635;SDS011;10477;43.198;27.916;2022-08-04T12:51:51;26.30;;;24.20;;
20635;SDS011;10477;43.198;27.916;2022-08-04T12:54:22;25.85;;;23.83;;
20635;SDS011;10477;43.198;27.916;2022-08-04T12:56:52;27.37;;;25.17;;
20635;SDS011;10477;43.198;27.916;2022-08-04T12:59:25;27.22;;;25.02;;
20635;SDS011;10477;43.198;27.916;2022-08-04T13:01:53;29.42;;;26.68;;
20635;SDS011;10477;43.198;27.916;2022-08-04T13:04:23;26.62;;;24.47;;
20635;SDS011;10477;43.198;27.916;2022-08-04T13:06:59;26.07;;;24.05;;
20635;SDS011;10477;43.198;27.916;2022-08-04T13:09:33;26.82;;;24.65;;
20635;SDS011;10477;43.198;27.916;2022-08-04T13:12:10;27.22;;;25.02;;
20635;SDS011;10477;43.198;27.916;2022-08-04T13:14:34;25.85;;;23.95;;
20635;SDS011;10477;43.198;27.916;2022-08-04T13:17:03;28.07;;;26.07;;
20635;SDS011;10477;43.198;27.916;2022-08-04T13:19:32;26.75;;;24.65;;
20635;SDS011;10477;43.198;27.916;2022-08-04T13:22:01;26.02;;;24.12;;
20635;SDS011;10477;43.198;27.916;2022-08-04T13:24:30;25.60;;;23.80;;
20635;SDS011;10477;43.198;27.916;2022-08-04T13:27:08;23.80;;;22.10;;
20635;SDS011;10477;43.198;27.916;2022-08-04T13:29:42;24.63;;;22.82;;
20635;SDS011;10477;43.198;27.916;2022-08-04T13:32:10;32.70;;;30.17;;
20635;SDS011;10477;43.198;27.916;2022-08-04T13:34:47;29.10;;;26.70;;
20635;SDS011;10477;43.198;27.916;2022-08-04T13:37:17;28.07;;;25.57;;
20635;SDS011;10477;43.198;27.916;2022-08-04T13:39:48;27.25;;;24.63;;
20635;SDS011;10477;43.198;27.916;2022-08-04T13:42:16;25.35;;;23.52;;
20635;SDS011;10477;43.198;27.916;2022-08-04T13:44:47;28.60;;;25.95;;
20635;SDS011;10477;43.198;27.916;2022-08-04T13:47:21;30.52;;;27.67;;
20635;SDS011;10477;43.198;27.916;2022-08-04T13:52:50;26.75;;;24.77;;
20635;SDS011;10477;43.198;27.916;2022-08-04T13:55:30;25.88;;;23.83;;
20635;SDS011;10477;43.198;27.916;2022-08-04T13:57:56;27.35;;;25.25;;
20635;SDS011;10477;43.198;27.916;2022-08-04T14:00:26;26.97;;;24.72;;
20635;SDS011;10477;43.198;27.916;2022-08-04T14:03:08;27.13;;;24.77;;
20635;SDS011;10477;43.198;27.916;2022-08-04T14:05:38;26.25;;;24.25;;
20635;SDS011;10477;43.198;27.916;2022-08-04T14:08:12;27.60;;;25.32;;
20635;SDS011;10477;43.198;27.916;2022-08-04T14:10:41;26.68;;;24.43;;
20635;SDS011;10477;43.198;27.916;2022-08-04T14:13:10;26.05;;;23.95;;
20635;SDS011;10477;43.198;27.916;2022-08-04T14:15:42;27.70;;;25.57;;
20635;SDS011;10477;43.198;27.916;2022-08-04T14:18:19;26.20;;;24.25;;
20635;SDS011;10477;43.198;27.916;2022-08-04T14:20:59;26.37;;;24.37;;
20635;SDS011;10477;43.198;27.916;2022-08-04T14:26:28;24.67;;;22.77;;
20635;SDS011;10477;43.198;27.916;2022-08-04T14:29:13;25.30;;;23.38;;
20635;SDS011;10477;43.198;27.916;2022-08-04T14:31:46;34.60;;;32.25;;
20635;SDS011;10477;43.198;27.916;2022-08-04T14:34:25;27.40;;;25.30;;
20635;SDS011;10477;43.198;27.916;2022-08-04T14:36:54;28.77;;;26.57;;
20635;SDS011;10477;43.198;27.916;2022-08-04T14:39:37;28.05;;;25.77;;
20635;SDS011;10477;43.198;27.916;2022-08-04T14:42:07;31.62;;;29.10;;
20635;SDS011;10477;43.198;27.916;2022-08-04T14:44:52;28.87;;;26.57;;
20635;SDS011;10477;43.198;27.916;2022-08-04T14:47:42;28.02;;;25.82;;
20635;SDS011;10477;43.198;27.916;2022-08-04T14:50:12;28.02;;;25.82;;
20635;SDS011;10477;43.198;27.916;2022-08-04T14:52:40;28.55;;;26.25;;
20635;SDS011;10477;43.198;27.916;2022-08-04T14:55:21;30.10;;;27.70;;
20635;SDS011;10477;43.198;27.916;2022-08-04T14:57:50;30.10;;;27.70;;
20635;SDS011;10477;43.198;27.916;2022-08-04T15:00:27;29.65;;;27.25;;
20635;SDS011;10477;43.198;27.916;2022-08-04T15:02:53;29.52;;;27.13;;
20635;SDS011;10477;43.198;27.916;2022-08-04T15:05:35;31.10;;;28.70;;
20635;SDS011;10477;43.198;27.916;2022-08-04T15:08:05;31.33;;;28.85;;
20635;SDS011;10477;43.198;27.916;2022-08-04T15:10:34;33.05;;;30.25;;
20635;SDS011;10477;43.198;27.916;2022-08-04T15:13:02;31.30;;;28.80;;
20635;SDS011;10477;43.198;27.916;2022-08-04T15:15:32;31.00;;;28.60;;
20635;SDS011;10477;43.198;27.916;2022-08-04T15:18:02;36.23;;;33.33;;
20635;SDS011;10477;43.198;27.916;2022-08-04T15:20:32;33.80;;;31.20;;
20635;SDS011;10477;43.198;27.916;2022-08-04T15:23:03;30.72;;;28.12;;
20635;SDS011;10477;43.198;27.916;2022-08-04T15:25:37;29.25;;;26.95;;
20635;SDS011;10477;43.198;27.916;2022-08-04T15:28:02;31.93;;;29.32;;
20635;SDS011;10477;43.198;27.916;2022-08-04T15:30:32;32.88;;;30.37;;
20635;SDS011;10477;43.198;27.916;2022-08-04T15:33:00;29.50;;;27.20;;
20635;SDS011;10477;43.198;27.916;2022-08-04T15:35:30;31.57;;;28.45;;
20635;SDS011;10477;43.198;27.916;2022-08-04T15:46:06;31.93;;;29.42;;
20635;SDS011;10477;43.198;27.916;2022-08-04T15:48:33;30.80;;;28.30;;
20635;SDS011;10477;43.198;27.916;2022-08-04T15:51:03;29.70;;;27.30;;
20635;SDS011;10477;43.198;27.916;2022-08-04T15:56:41;31.57;;;28.87;;
20635;SDS011;10477;43.198;27.916;2022-08-04T15:58:50;59.45;;;31.48;;
20635;SDS011;10477;43.198;27.916;2022-08-04T16:01:20;29.25;;;26.75;;
20635;SDS011;10477;43.198;27.916;2022-08-04T16:03:49;31.35;;;28.65;;
20635;SDS011;10477;43.198;27.916;2022-08-04T16:19:19;31.93;;;29.23;;
20635;SDS011;10477;43.198;27.916;2022-08-04T16:21:47;32.50;;;29.60;;
20635;SDS011;10477;43.198;27.916;2022-08-04T16:24:17;31.65;;;29.05;;
20635;SDS011;10477;43.198;27.916;2022-08-04T16:26:57;30.10;;;27.35;;
20635;SDS011;10477;43.198;27.916;2022-08-04T16:34:54;32.40;;;29.50;;
20635;SDS011;10477;43.198;27.916;2022-08-04T16:37:37;32.13;;;29.23;;
20635;SDS011;10477;43.198;27.916;2022-08-04T16:43:02;33.78;;;30.82;;
20635;SDS011;10477;43.198;27.916;2022-08-04T16:48:16;39.45;;;36.15;;
20635;SDS011;10477;43.198;27.916;2022-08-04T16:53:19;32.60;;;29.63;;
20635;SDS011;10477;43.198;27.916;2022-08-04T16:55:49;43.83;;;40.30;;
20635;SDS011;10477;43.198;27.916;2022-08-04T16:58:33;33.58;;;30.50;;
20635;SDS011;10477;43.198;27.916;2022-08-04T17:00:58;34.35;;;31.10;;
20635;SDS011;10477;43.198;27.916;2022-08-04T17:03:34;36.48;;;33.28;;
20635;SDS011;10477;43.198;27.916;2022-08-04T17:06:04;36.10;;;32.80;;
20635;SDS011;10477;43.198;27.916;2022-08-04T17:08:34;39.25;;;35.65;;
20635;SDS011;10477;43.198;27.916;2022-08-04T17:11:03;36.00;;;32.80;;
20635;SDS011;10477;43.198;27.916;2022-08-04T17:13:34;37.90;;;34.30;;
20635;SDS011;10477;43.198;27.916;2022-08-04T17:16:08;37.88;;;34.38;;
20635;SDS011;10477;43.198;27.916;2022-08-04T17:18:40;38.17;;;34.40;;
20635;SDS011;10477;43.198;27.916;2022-08-04T17:21:17;38.60;;;35.10;;
20635;SDS011;10477;43.198;27.916;2022-08-04T17:23:43;38.60;;;34.80;;
20635;SDS011;10477;43.198;27.916;2022-08-04T17:26:16;39.53;;;35.63;;
20635;SDS011;10477;43.198;27.916;2022-08-04T17:28:47;37.28;;;33.78;;
20635;SDS011;10477;43.198;27.916;2022-08-04T17:31:16;35.70;;;32.30;;
20635;SDS011;10477;43.198;27.916;2022-08-04T17:33:45;39.15;;;35.60;;
20635;SDS011;10477;43.198;27.916;2022-08-04T17:36:16;35.10;;;31.77;;
20635;SDS011;10477;43.198;27.916;2022-08-04T17:38:46;39.70;;;36.20;;
20635;SDS011;10477;43.198;27.916;2022-08-04T17:41:22;37.65;;;34.27;;
20635;SDS011;10477;43.198;27.916;2022-08-04T17:43:53;36.98;;;33.67;;
20635;SDS011;10477;43.198;27.916;2022-08-04T17:46:28;32.55;;;29.35;;
20635;SDS011;10477;43.198;27.916;2022-08-04T17:54:16;34.50;;;31.57;;
20635;SDS011;10477;43.198;27.916;2022-08-04T17:56:46;33.40;;;30.40;;
20635;SDS011;10477;43.198;27.916;2022-08-04T17:59:17;39.83;;;36.13;;
20635;SDS011;10477;43.198;27.916;2022-08-04T18:07:21;34.15;;;31.05;;
20635;SDS011;10477;43.198;27.916;2022-08-04T18:09:51;38.08;;;34.78;;
20635;SDS011;10477;43.198;27.916;2022-08-04T18:15:31;36.70;;;33.60;;
20635;SDS011;10477;43.198;27.916;2022-08-04T18:17:50;51.05;;;47.23;;
20635;SDS011;10477;43.198;27.916;2022-08-04T18:20:18;34.25;;;31.35;;
20635;SDS011;10477;43.198;27.916;2022-08-04T18:22:47;36.30;;;33.00;;
20635;SDS011;10477;43.198;27.916;2022-08-04T18:25:16;35.75;;;32.65;;
20635;SDS011;10477;43.198;27.916;2022-08-04T18:27:50;36.75;;;33.67;;
20635;SDS011;10477;43.198;27.916;2022-08-04T18:30:20;33.55;;;30.55;;
20635;SDS011;10477;43.198;27.916;2022-08-04T18:32:50;32.88;;;29.77;;
20635;SDS011;10477;43.198;27.916;2022-08-04T18:35:23;41.05;;;37.65;;
20635;SDS011;10477;43.198;27.916;2022-08-04T18:37:51;41.10;;;37.58;;
20635;SDS011;10477;43.198;27.916;2022-08-04T18:40:19;35.05;;;31.75;;
20635;SDS011;10477;43.198;27.916;2022-08-04T18:42:48;43.73;;;40.12;;
20635;SDS011;10477;43.198;27.916;2022-08-04T18:45:15;36.00;;;32.90;;
20635;SDS011;10477;43.198;27.916;2022-08-04T18:47:43;42.53;;;38.98;;
20635;SDS011;10477;43.198;27.916;2022-08-04T18:50:11;49.93;;;45.83;;
20635;SDS011;10477;43.198;27.916;2022-08-04T18:52:38;43.13;;;39.33;;
20635;SDS011;10477;43.198;27.916;2022-08-04T18:55:06;39.45;;;36.05;;
20635;SDS011;10477;43.198;27.916;2022-08-04T18:57:34;34.92;;;31.73;;
20635;SDS011;10477;43.198;27.916;2022-08-04T19:00:02;38.55;;;35.25;;
20635;SDS011;10477;43.198;27.916;2022-08-04T19:02:30;35.98;;;32.78;;
20635;SDS011;10477;43.198;27.916;2022-08-04T19:04:58;40.23;;;36.93;;
20635;SDS011;10477;43.198;27.916;2022-08-04T19:07:25;39.25;;;35.95;;
20635;SDS011;10477;43.198;27.916;2022-08-04T19:09:54;34.40;;;31.20;;
20635;SDS011;10477;43.198;27.916;2022-08-04T19:12:21;38.28;;;35.08;;
20635;SDS011;10477;43.198;27.916;2022-08-04T19:14:49;34.45;;;31.23;;
20635;SDS011;10477;43.198;27.916;2022-08-04T19:17:17;38.38;;;35.23;;
20635;SDS011;10477;43.198;27.916;2022-08-04T19:19:44;37.20;;;33.80;;
20635;SDS011;10477;43.198;27.916;2022-08-04T19:22:12;41.28;;;37.88;;
20635;SDS011;10477;43.198;27.916;2022-08-04T19:24:40;39.65;;;36.25;;
20635;SDS011;10477;43.198;27.916;2022-08-04T19:27:07;38.50;;;34.92;;